sensor_id;sensor_type;location;lat;lon;timestamp;P1;durP1;ratioP1;P2;durP2;ratioP2
37241;SDS011;23135;51.078;12.108;2023-11-21T00:01:57;1.58;;;0.10;;
37241;SDS011;23135;51.078;12.108;2023-11-21T00:04:23;6.82;;;0.52;;
37241;SDS011;23135;51.078;12.108;2023-11-21T00:06:48;3.20;;;0.00;;
37241;SDS011;23135;51.078;12.108;2023-11-21T00:09:14;4.45;;;0.57;;
37241;SDS011;23135;51.078;12.108;2023-11-21T00:11:40;3.67;;;0.60;;
37241;SDS011;23135;51.078;12.108;2023-11-21T00:14:06;3.13;;;0.00;;
37241;SDS011;23135;51.078;12.108;2023-11-21T00:16:33;1.45;;;0.00;;
37241;SDS011;23135;51.078;12.108;2023-11-21T00:18:59;3.40;;;0.43;;
37241;SDS011;23135;51.078;12.108;2023-11-21T00:21:24;3.30;;;0.25;;
37241;SDS011;23135;51.078;12.108;2023-11-21T00:23:50;1.98;;;0.80;;
37241;SDS011;23135;51.078;12.108;2023-11-21T00:26:16;7.25;;;0.22;;
37241;SDS011;23135;51.078;12.108;2023-11-21T00:28:42;0.82;;;0.00;;
37241;SDS011;23135;51.078;12.108;2023-11-21T00:31:08;6.32;;;0.20;;
37241;SDS011;23135;51.078;12.108;2023-11-21T00:33:33;0.43;;;0.20;;
37241;SDS011;23135;51.078;12.108;2023-11-21T00:35:59;5.28;;;1.02;;
37241;SDS011;23135;51.078;12.108;2023-11-21T00:38:25;4.15;;;0.13;;
37241;SDS011;23135;51.078;12.108;2023-11-21T00:40:52;3.65;;;0.28;;
37241;SDS011;23135;51.078;12.108;2023-11-21T00:43:21;5.28;;;0.20;;
37241;SDS011;23135;51.078;12.108;2023-11-21T00:45:49;3.00;;;0.00;;
37241;SDS011;23135;51.078;12.108;2023-11-21T00:48:15;1.63;;;0.00;;
37241;SDS011;23135;51.078;12.108;2023-11-21T00:50:40;7.03;;;0.43;;
37241;SDS011;23135;51.078;12.108;2023-11-21T00:53:06;2.28;;;0.28;;
37241;SDS011;23135;51.078;12.108;2023-11-21T00:55:32;5.68;;;0.20;;
37241;SDS011;23135;51.078;12.108;2023-11-21T00:57:58;0.63;;;0.15;;
37241;SDS011;23135;51.078;12.108;2023-11-21T01:00:24;2.55;;;0.08;;
37241;SDS011;23135;51.078;12.108;2023-11-21T01:02:50;2.08;;;0.35;;
37241;SDS011;23135;51.078;12.108;2023-11-21T01:05:16;3.00;;;0.20;;
37241;SDS011;23135;51.078;12.108;2023-11-21T01:07:42;3.85;;;0.10;;
37241;SDS011;23135;51.078;12.108;2023-11-21T01:10:07;2.63;;;0.00;;
37241;SDS011;23135;51.078;12.108;2023-11-21T01:12:35;5.45;;;0.20;;
37241;SDS011;23135;51.078;12.108;2023-11-21T01:15:02;3.58;;;0.10;;
37241;SDS011;23135;51.078;12.108;2023-11-21T01:17:28;1.85;;;0.00;;
37241;SDS011;23135;51.078;12.108;2023-11-21T01:19:54;5.78;;;0.10;;
37241;SDS011;23135;51.078;12.108;2023-11-21T01:22:21;1.08;;;0.00;;
37241;SDS011;23135;51.078;12.108;2023-11-21T01:24:50;3.42;;;0.28;;
37241;SDS011;23135;51.078;12.108;2023-11-21T01:27:19;1.85;;;0.32;;
37241;SDS011;23135;51.078;12.108;2023-11-21T01:29:45;7.90;;;0.13;;
37241;SDS011;23135;51.078;12.108;2023-11-21T01:32:11;1.15;;;0.25;;
37241;SDS011;23135;51.078;12.108;2023-11-21T01:34:37;0.52;;;0.00;;
37241;SDS011;23135;51.078;12.108;2023-11-21T01:37:02;3.80;;;0.47;;
37241;SDS011;23135;51.078;12.108;2023-11-21T01:39:30;1.05;;;0.00;;
37241;SDS011;23135;51.078;12.108;2023-11-21T01:41:56;5.50;;;0.20;;
37241;SDS011;23135;51.078;12.108;2023-11-21T01:44:23;7.85;;;0.32;;
37241;SDS011;23135;51.078;12.108;2023-11-21T01:46:49;3.58;;;0.10;;
37241;SDS011;23135;51.078;12.108;2023-11-21T01:49:16;2.20;;;0.47;;
37241;SDS011;23135;51.078;12.108;2023-11-21T01:51:43;10.52;;;0.57;;
37241;SDS011;23135;51.078;12.108;2023-11-21T01:54:11;2.10;;;0.10;;
37241;SDS011;23135;51.078;12.108;2023-11-21T01:56:37;4.85;;;0.30;;
37241;SDS011;23135;51.078;12.108;2023-11-21T01:59:04;4.85;;;0.55;;
37241;SDS011;23135;51.078;12.108;2023-11-21T02:01:32;2.65;;;0.00;;
37241;SDS011;23135;51.078;12.108;2023-11-21T02:03:58;4.13;;;0.00;;
37241;SDS011;23135;51.078;12.108;2023-11-21T02:06:23;3.30;;;0.35;;
37241;SDS011;23135;51.078;12.108;2023-11-21T02:08:49;2.92;;;0.22;;
37241;SDS011;23135;51.078;12.108;2023-11-21T02:11:15;8.75;;;0.00;;
37241;SDS011;23135;51.078;12.108;2023-11-21T02:13:41;1.55;;;0.40;;
37241;SDS011;23135;51.078;12.108;2023-11-21T02:16:10;1.17;;;0.20;;
37241;SDS011;23135;51.078;12.108;2023-11-21T02:18:37;4.43;;;0.20;;
37241;SDS011;23135;51.078;12.108;2023-11-21T02:21:04;3.60;;;0.00;;
37241;SDS011;23135;51.078;12.108;2023-11-21T02:23:30;1.17;;;0.25;;
37241;SDS011;23135;51.078;12.108;2023-11-21T02:25:56;5.55;;;0.43;;
37241;SDS011;23135;51.078;12.108;2023-11-21T02:28:21;2.63;;;0.00;;
37241;SDS011;23135;51.078;12.108;2023-11-21T02:30:51;9.18;;;0.10;;
37241;SDS011;23135;51.078;12.108;2023-11-21T02:33:21;2.03;;;0.00;;
37241;SDS011;23135;51.078;12.108;2023-11-21T02:35:47;1.55;;;0.00;;
37241;SDS011;23135;51.078;12.108;2023-11-21T02:38:13;5.00;;;1.75;;
37241;SDS011;23135;51.078;12.108;2023-11-21T02:40:39;3.03;;;0.10;;
37241;SDS011;23135;51.078;12.108;2023-11-21T02:43:04;5.63;;;0.95;;
37241;SDS011;23135;51.078;12.108;2023-11-21T02:45:30;3.63;;;0.10;;
37241;SDS011;23135;51.078;12.108;2023-11-21T02:47:56;3.97;;;0.57;;
37241;SDS011;23135;51.078;12.108;2023-11-21T02:50:22;4.82;;;0.20;;
37241;SDS011;23135;51.078;12.108;2023-11-21T02:52:49;5.43;;;0.15;;
37241;SDS011;23135;51.078;12.108;2023-11-21T02:55:14;2.38;;;0.00;;
37241;SDS011;23135;51.078;12.108;2023-11-21T02:57:40;3.25;;;0.25;;
37241;SDS011;23135;51.078;12.108;2023-11-21T03:00:06;11.32;;;0.32;;
37241;SDS011;23135;51.078;12.108;2023-11-21T03:02:33;6.20;;;0.30;;
37241;SDS011;23135;51.078;12.108;2023-11-21T03:05:01;5.28;;;0.40;;
37241;SDS011;23135;51.078;12.108;2023-11-21T03:07:27;5.28;;;0.10;;
37241;SDS011;23135;51.078;12.108;2023-11-21T03:09:53;2.50;;;0.15;;
37241;SDS011;23135;51.078;12.108;2023-11-21T03:12:18;2.67;;;0.20;;
37241;SDS011;23135;51.078;12.108;2023-11-21T03:14:44;0.43;;;0.20;;
37241;SDS011;23135;51.078;12.108;2023-11-21T03:17:10;3.97;;;0.47;;
37241;SDS011;23135;51.078;12.108;2023-11-21T03:19:36;0.77;;;0.15;;
37241;SDS011;23135;51.078;12.108;2023-11-21T03:22:02;2.45;;;0.00;;
37241;SDS011;23135;51.078;12.108;2023-11-21T03:24:29;1.60;;;0.00;;
37241;SDS011;23135;51.078;12.108;2023-11-21T03:26:54;7.70;;;0.35;;
37241;SDS011;23135;51.078;12.108;2023-11-21T03:29:21;7.18;;;0.35;;
37241;SDS011;23135;51.078;12.108;2023-11-21T03:31:46;6.60;;;0.38;;
37241;SDS011;23135;51.078;12.108;2023-11-21T03:34:16;2.47;;;0.10;;
37241;SDS011;23135;51.078;12.108;2023-11-21T03:36:48;3.55;;;0.20;;
37241;SDS011;23135;51.078;12.108;2023-11-21T03:39:14;11.25;;;0.68;;
37241;SDS011;23135;51.078;12.108;2023-11-21T03:41:39;5.28;;;0.85;;
37241;SDS011;23135;51.078;12.108;2023-11-21T03:44:05;5.25;;;0.40;;
37241;SDS011;23135;51.078;12.108;2023-11-21T03:46:30;2.65;;;0.00;;
37241;SDS011;23135;51.078;12.108;2023-11-21T03:48:56;5.40;;;0.20;;
37241;SDS011;23135;51.078;12.108;2023-11-21T03:51:21;2.58;;;0.47;;
37241;SDS011;23135;51.078;12.108;2023-11-21T03:53:47;3.90;;;0.20;;
37241;SDS011;23135;51.078;12.108;2023-11-21T03:56:13;7.50;;;1.05;;
37241;SDS011;23135;51.078;12.108;2023-11-21T03:58:39;3.78;;;1.08;;
37241;SDS011;23135;51.078;12.108;2023-11-21T04:01:05;2.67;;;0.40;;
37241;SDS011;23135;51.078;12.108;2023-11-21T04:03:30;3.22;;;0.35;;
37241;SDS011;23135;51.078;12.108;2023-11-21T04:05:56;3.92;;;0.25;;
37241;SDS011;23135;51.078;12.108;2023-11-21T04:08:22;2.20;;;0.10;;
37241;SDS011;23135;51.078;12.108;2023-11-21T04:10:47;3.88;;;0.30;;
37241;SDS011;23135;51.078;12.108;2023-11-21T04:13:13;8.23;;;0.88;;
37241;SDS011;23135;51.078;12.108;2023-11-21T04:15:39;1.92;;;0.45;;
37241;SDS011;23135;51.078;12.108;2023-11-21T04:18:05;2.28;;;0.10;;
37241;SDS011;23135;51.078;12.108;2023-11-21T04:20:30;5.05;;;0.40;;
37241;SDS011;23135;51.078;12.108;2023-11-21T04:22:57;4.35;;;0.80;;
37241;SDS011;23135;51.078;12.108;2023-11-21T04:25:22;12.48;;;1.15;;
37241;SDS011;23135;51.078;12.108;2023-11-21T04:27:48;2.75;;;0.40;;
37241;SDS011;23135;51.078;12.108;2023-11-21T04:30:14;2.90;;;0.30;;
37241;SDS011;23135;51.078;12.108;2023-11-21T04:32:40;5.07;;;0.30;;
37241;SDS011;23135;51.078;12.108;2023-11-21T04:35:06;4.15;;;0.40;;
37241;SDS011;23135;51.078;12.108;2023-11-21T04:37:33;5.03;;;0.57;;
37241;SDS011;23135;51.078;12.108;2023-11-21T04:39:59;2.97;;;0.43;;
37241;SDS011;23135;51.078;12.108;2023-11-21T04:42:24;2.92;;;0.68;;
37241;SDS011;23135;51.078;12.108;2023-11-21T04:44:50;5.72;;;1.48;;
37241;SDS011;23135;51.078;12.108;2023-11-21T04:47:17;7.43;;;0.22;;
37241;SDS011;23135;51.078;12.108;2023-11-21T04:49:45;3.78;;;0.20;;
37241;SDS011;23135;51.078;12.108;2023-11-21T04:52:14;2.33;;;0.80;;
37241;SDS011;23135;51.078;12.108;2023-11-21T04:54:40;2.30;;;0.30;;
37241;SDS011;23135;51.078;12.108;2023-11-21T04:57:05;1.88;;;0.63;;
37241;SDS011;23135;51.078;12.108;2023-11-21T04:59:32;4.82;;;0.85;;
37241;SDS011;23135;51.078;12.108;2023-11-21T05:01:58;8.13;;;0.57;;
37241;SDS011;23135;51.078;12.108;2023-11-21T05:04:25;3.17;;;0.80;;
37241;SDS011;23135;51.078;12.108;2023-11-21T05:06:50;5.75;;;1.00;;
37241;SDS011;23135;51.078;12.108;2023-11-21T05:09:16;3.50;;;0.70;;
37241;SDS011;23135;51.078;12.108;2023-11-21T05:11:42;8.32;;;0.50;;
37241;SDS011;23135;51.078;12.108;2023-11-21T05:14:08;3.13;;;0.98;;
37241;SDS011;23135;51.078;12.108;2023-11-21T05:16:34;7.07;;;1.05;;
37241;SDS011;23135;51.078;12.108;2023-11-21T05:19:00;7.28;;;1.02;;
37241;SDS011;23135;51.078;12.108;2023-11-21T05:21:26;7.00;;;1.23;;
37241;SDS011;23135;51.078;12.108;2023-11-21T05:23:52;12.02;;;2.22;;
37241;SDS011;23135;51.078;12.108;2023-11-21T05:26:18;10.45;;;1.00;;
37241;SDS011;23135;51.078;12.108;2023-11-21T05:28:44;3.35;;;0.85;;
37241;SDS011;23135;51.078;12.108;2023-11-21T05:31:09;7.03;;;2.38;;
37241;SDS011;23135;51.078;12.108;2023-11-21T05:33:35;12.88;;;2.65;;
37241;SDS011;23135;51.078;12.108;2023-11-21T05:36:01;4.90;;;1.98;;
37241;SDS011;23135;51.078;12.108;2023-11-21T05:38:27;6.25;;;1.88;;
37241;SDS011;23135;51.078;12.108;2023-11-21T05:40:53;6.78;;;1.80;;
37241;SDS011;23135;51.078;12.108;2023-11-21T05:43:19;10.35;;;2.13;;
37241;SDS011;23135;51.078;12.108;2023-11-21T05:45:45;7.32;;;1.83;;
37241;SDS011;23135;51.078;12.108;2023-11-21T05:48:10;10.93;;;1.95;;
37241;SDS011;23135;51.078;12.108;2023-11-21T05:50:36;9.55;;;2.15;;
37241;SDS011;23135;51.078;12.108;2023-11-21T05:53:03;4.05;;;1.75;;
37241;SDS011;23135;51.078;12.108;2023-11-21T05:55:28;4.32;;;1.50;;
37241;SDS011;23135;51.078;12.108;2023-11-21T05:57:54;9.48;;;2.22;;
37241;SDS011;23135;51.078;12.108;2023-11-21T06:00:20;4.78;;;1.60;;
37241;SDS011;23135;51.078;12.108;2023-11-21T06:02:49;6.88;;;1.70;;
37241;SDS011;23135;51.078;12.108;2023-11-21T06:05:17;6.28;;;3.28;;
37241;SDS011;23135;51.078;12.108;2023-11-21T06:07:43;12.02;;;2.05;;
37241;SDS011;23135;51.078;12.108;2023-11-21T06:10:10;7.20;;;2.03;;
37241;SDS011;23135;51.078;12.108;2023-11-21T06:12:38;7.70;;;2.38;;
37241;SDS011;23135;51.078;12.108;2023-11-21T06:15:05;11.02;;;1.90;;
37241;SDS011;23135;51.078;12.108;2023-11-21T06:17:33;8.77;;;2.03;;
37241;SDS011;23135;51.078;12.108;2023-11-21T06:20:03;10.05;;;2.45;;
37241;SDS011;23135;51.078;12.108;2023-11-21T06:22:34;7.40;;;1.80;;
37241;SDS011;23135;51.078;12.108;2023-11-21T06:25:03;9.40;;;2.10;;
37241;SDS011;23135;51.078;12.108;2023-11-21T06:27:33;9.07;;;1.95;;
37241;SDS011;23135;51.078;12.108;2023-11-21T06:30:18;5.38;;;2.00;;
37241;SDS011;23135;51.078;12.108;2023-11-21T06:32:44;10.18;;;2.22;;
37241;SDS011;23135;51.078;12.108;2023-11-21T06:35:13;6.80;;;2.42;;
37241;SDS011;23135;51.078;12.108;2023-11-21T06:37:40;8.93;;;3.65;;
37241;SDS011;23135;51.078;12.108;2023-11-21T06:40:06;12.77;;;2.45;;
37241;SDS011;23135;51.078;12.108;2023-11-21T06:42:32;13.65;;;3.25;;
37241;SDS011;23135;51.078;12.108;2023-11-21T06:44:58;7.15;;;2.63;;
37241;SDS011;23135;51.078;12.108;2023-11-21T06:47:27;7.75;;;2.65;;
37241;SDS011;23135;51.078;12.108;2023-11-21T06:49:54;9.70;;;2.75;;
37241;SDS011;23135;51.078;12.108;2023-11-21T06:52:20;5.82;;;2.38;;
37241;SDS011;23135;51.078;12.108;2023-11-21T06:54:46;7.82;;;2.15;;
37241;SDS011;23135;51.078;12.108;2023-11-21T06:57:12;8.40;;;3.25;;
37241;SDS011;23135;51.078;12.108;2023-11-21T06:59:38;11.98;;;3.13;;
37241;SDS011;23135;51.078;12.108;2023-11-21T07:02:04;7.93;;;2.60;;
37241;SDS011;23135;51.078;12.108;2023-11-21T07:04:31;7.82;;;2.67;;
37241;SDS011;23135;51.078;12.108;2023-11-21T07:07:06;8.10;;;2.35;;
37241;SDS011;23135;51.078;12.108;2023-11-21T07:09:32;14.95;;;3.50;;
37241;SDS011;23135;51.078;12.108;2023-11-21T07:11:57;7.90;;;3.25;;
37241;SDS011;23135;51.078;12.108;2023-11-21T07:14:23;11.23;;;3.65;;
37241;SDS011;23135;51.078;12.108;2023-11-21T07:16:49;8.40;;;2.90;;
37241;SDS011;23135;51.078;12.108;2023-11-21T07:19:14;12.20;;;4.35;;
37241;SDS011;23135;51.078;12.108;2023-11-21T07:21:40;11.70;;;4.05;;
37241;SDS011;23135;51.078;12.108;2023-11-21T07:24:07;15.38;;;4.63;;
37241;SDS011;23135;51.078;12.108;2023-11-21T07:26:33;21.25;;;5.55;;
37241;SDS011;23135;51.078;12.108;2023-11-21T07:29:00;12.25;;;4.70;;
37241;SDS011;23135;51.078;12.108;2023-11-21T07:31:29;15.18;;;4.45;;
37241;SDS011;23135;51.078;12.108;2023-11-21T07:33:55;11.95;;;4.55;;
37241;SDS011;23135;51.078;12.108;2023-11-21T07:36:24;11.52;;;5.25;;
37241;SDS011;23135;51.078;12.108;2023-11-21T07:38:50;14.02;;;4.53;;
37241;SDS011;23135;51.078;12.108;2023-11-21T07:41:17;13.80;;;6.47;;
37241;SDS011;23135;51.078;12.108;2023-11-21T07:43:44;17.30;;;4.78;;
37241;SDS011;23135;51.078;12.108;2023-11-21T07:46:10;14.43;;;5.75;;
37241;SDS011;23135;51.078;12.108;2023-11-21T07:48:37;8.90;;;4.22;;
37241;SDS011;23135;51.078;12.108;2023-11-21T07:51:04;11.02;;;4.65;;
37241;SDS011;23135;51.078;12.108;2023-11-21T07:53:30;21.00;;;6.80;;
37241;SDS011;23135;51.078;12.108;2023-11-21T07:55:56;19.13;;;5.30;;
37241;SDS011;23135;51.078;12.108;2023-11-21T07:58:22;12.55;;;4.50;;
37241;SDS011;23135;51.078;12.108;2023-11-21T08:00:49;10.60;;;5.20;;
37241;SDS011;23135;51.078;12.108;2023-11-21T08:03:14;13.13;;;5.25;;
37241;SDS011;23135;51.078;12.108;2023-11-21T08:05:41;13.52;;;4.90;;
37241;SDS011;23135;51.078;12.108;2023-11-21T08:08:06;13.70;;;4.53;;
37241;SDS011;23135;51.078;12.108;2023-11-21T08:10:32;14.90;;;5.35;;
37241;SDS011;23135;51.078;12.108;2023-11-21T08:12:58;17.25;;;6.57;;
37241;SDS011;23135;51.078;12.108;2023-11-21T08:15:24;12.05;;;4.45;;
37241;SDS011;23135;51.078;12.108;2023-11-21T08:17:50;15.18;;;5.43;;
37241;SDS011;23135;51.078;12.108;2023-11-21T08:20:16;18.55;;;8.98;;
37241;SDS011;23135;51.078;12.108;2023-11-21T08:22:43;35.83;;;11.13;;
37241;SDS011;23135;51.078;12.108;2023-11-21T08:25:09;37.92;;;16.35;;
37241;SDS011;23135;51.078;12.108;2023-11-21T08:27:40;33.85;;;12.32;;
37241;SDS011;23135;51.078;12.108;2023-11-21T08:30:06;14.65;;;6.30;;
37241;SDS011;23135;51.078;12.108;2023-11-21T08:32:32;12.40;;;6.55;;
37241;SDS011;23135;51.078;12.108;2023-11-21T08:35:01;18.90;;;8.05;;
37241;SDS011;23135;51.078;12.108;2023-11-21T08:37:26;17.45;;;6.95;;
37241;SDS011;23135;51.078;12.108;2023-11-21T08:39:53;16.50;;;6.85;;
37241;SDS011;23135;51.078;12.108;2023-11-21T08:42:19;14.27;;;5.78;;
37241;SDS011;23135;51.078;12.108;2023-11-21T08:44:45;15.43;;;6.95;;
37241;SDS011;23135;51.078;12.108;2023-11-21T08:47:11;20.20;;;7.30;;
37241;SDS011;23135;51.078;12.108;2023-11-21T08:49:37;21.95;;;7.10;;
37241;SDS011;23135;51.078;12.108;2023-11-21T08:52:03;26.27;;;9.13;;
37241;SDS011;23135;51.078;12.108;2023-11-21T08:54:30;25.77;;;8.27;;
37241;SDS011;23135;51.078;12.108;2023-11-21T08:56:56;25.20;;;9.40;;
37241;SDS011;23135;51.078;12.108;2023-11-21T08:59:23;23.42;;;8.93;;
37241;SDS011;23135;51.078;12.108;2023-11-21T09:01:52;24.27;;;9.30;;
37241;SDS011;23135;51.078;12.108;2023-11-21T09:04:17;25.98;;;8.88;;
37241;SDS011;23135;51.078;12.108;2023-11-21T09:06:43;24.98;;;10.25;;
37241;SDS011;23135;51.078;12.108;2023-11-21T09:09:08;25.10;;;8.52;;
37241;SDS011;23135;51.078;12.108;2023-11-21T09:11:35;38.85;;;11.77;;
37241;SDS011;23135;51.078;12.108;2023-11-21T09:14:01;35.75;;;10.40;;
37241;SDS011;23135;51.078;12.108;2023-11-21T09:16:28;25.02;;;9.65;;
37241;SDS011;23135;51.078;12.108;2023-11-21T09:18:54;32.42;;;13.02;;
37241;SDS011;23135;51.078;12.108;2023-11-21T09:21:20;31.42;;;12.73;;
37241;SDS011;23135;51.078;12.108;2023-11-21T09:23:45;28.77;;;12.18;;
37241;SDS011;23135;51.078;12.108;2023-11-21T09:26:11;35.13;;;13.45;;
37241;SDS011;23135;51.078;12.108;2023-11-21T09:28:37;36.45;;;13.57;;
37241;SDS011;23135;51.078;12.108;2023-11-21T09:31:07;39.55;;;13.73;;
37241;SDS011;23135;51.078;12.108;2023-11-21T09:33:34;35.97;;;13.82;;
37241;SDS011;23135;51.078;12.108;2023-11-21T09:35:59;44.67;;;15.60;;
37241;SDS011;23135;51.078;12.108;2023-11-21T09:38:26;27.02;;;12.50;;
37241;SDS011;23135;51.078;12.108;2023-11-21T09:40:53;37.17;;;14.13;;
37241;SDS011;23135;51.078;12.108;2023-11-21T09:43:20;37.10;;;14.77;;
37241;SDS011;23135;51.078;12.108;2023-11-21T09:45:47;33.15;;;12.40;;
37241;SDS011;23135;51.078;12.108;2023-11-21T09:48:18;40.70;;;13.48;;
37241;SDS011;23135;51.078;12.108;2023-11-21T09:50:45;33.22;;;12.70;;
37241;SDS011;23135;51.078;12.108;2023-11-21T09:53:13;30.58;;;13.05;;
37241;SDS011;23135;51.078;12.108;2023-11-21T09:55:46;32.75;;;14.52;;
37241;SDS011;23135;51.078;12.108;2023-11-21T09:58:16;34.25;;;12.77;;
37241;SDS011;23135;51.078;12.108;2023-11-21T10:00:46;36.83;;;13.65;;
37241;SDS011;23135;51.078;12.108;2023-11-21T10:03:12;30.38;;;14.98;;
37241;SDS011;23135;51.078;12.108;2023-11-21T10:05:39;35.78;;;13.68;;
37241;SDS011;23135;51.078;12.108;2023-11-21T10:08:10;43.08;;;16.95;;
37241;SDS011;23135;51.078;12.108;2023-11-21T10:10:37;35.97;;;13.63;;
37241;SDS011;23135;51.078;12.108;2023-11-21T10:13:07;33.72;;;14.88;;
37241;SDS011;23135;51.078;12.108;2023-11-21T10:15:37;30.80;;;15.05;;
37241;SDS011;23135;51.078;12.108;2023-11-21T10:18:04;42.10;;;15.55;;
37241;SDS011;23135;51.078;12.108;2023-11-21T10:20:32;32.72;;;14.05;;
37241;SDS011;23135;51.078;12.108;2023-11-21T10:22:58;27.02;;;13.27;;
37241;SDS011;23135;51.078;12.108;2023-11-21T10:25:27;23.45;;;11.35;;
37241;SDS011;23135;51.078;12.108;2023-11-21T10:27:56;17.58;;;6.72;;
37241;SDS011;23135;51.078;12.108;2023-11-21T10:30:35;6.18;;;3.40;;
37241;SDS011;23135;51.078;12.108;2023-11-21T10:33:02;3.92;;;2.28;;
37241;SDS011;23135;51.078;12.108;2023-11-21T10:38:07;5.22;;;2.45;;
37241;SDS011;23135;51.078;12.108;2023-11-21T10:40:39;6.07;;;1.77;;
37241;SDS011;23135;51.078;12.108;2023-11-21T10:43:07;5.82;;;3.28;;
37241;SDS011;23135;51.078;12.108;2023-11-21T10:45:39;2.63;;;2.10;;
37241;SDS011;23135;51.078;12.108;2023-11-21T10:48:05;3.40;;;2.40;;
37241;SDS011;23135;51.078;12.108;2023-11-21T10:50:33;2.63;;;1.85;;
37241;SDS011;23135;51.078;12.108;2023-11-21T10:53:04;3.17;;;2.08;;
37241;SDS011;23135;51.078;12.108;2023-11-21T10:55:30;3.78;;;2.13;;
37241;SDS011;23135;51.078;12.108;2023-11-21T10:57:58;2.42;;;1.63;;
37241;SDS011;23135;51.078;12.108;2023-11-21T11:00:27;1.70;;;1.48;;
37241;SDS011;23135;51.078;12.108;2023-11-21T11:02:53;3.83;;;1.35;;
37241;SDS011;23135;51.078;12.108;2023-11-21T11:05:20;2.70;;;1.88;;
37241;SDS011;23135;51.078;12.108;2023-11-21T11:07:50;3.17;;;1.92;;
37241;SDS011;23135;51.078;12.108;2023-11-21T11:10:20;1.77;;;0.95;;
37241;SDS011;23135;51.078;12.108;2023-11-21T11:12:47;1.23;;;0.85;;
37241;SDS011;23135;51.078;12.108;2023-11-21T11:15:15;2.90;;;1.30;;
37241;SDS011;23135;51.078;12.108;2023-11-21T11:17:41;11.27;;;2.05;;
37241;SDS011;23135;51.078;12.108;2023-11-21T11:20:09;8.27;;;3.88;;
37241;SDS011;23135;51.078;12.108;2023-11-21T11:25:21;8.40;;;2.88;;
37241;SDS011;23135;51.078;12.108;2023-11-21T11:33:25;4.13;;;3.03;;
37241;SDS011;23135;51.078;12.108;2023-11-21T11:36:04;2.38;;;1.60;;
37241;SDS011;23135;51.078;12.108;2023-11-21T11:38:34;2.03;;;1.80;;
37241;SDS011;23135;51.078;12.108;2023-11-21T11:41:03;2.83;;;2.08;;
37241;SDS011;23135;51.078;12.108;2023-11-21T11:43:31;3.63;;;1.48;;
37241;SDS011;23135;51.078;12.108;2023-11-21T11:46:09;2.45;;;1.70;;
37241;SDS011;23135;51.078;12.108;2023-11-21T11:48:38;5.70;;;2.08;;
37241;SDS011;23135;51.078;12.108;2023-11-21T11:51:11;4.95;;;1.60;;
37241;SDS011;23135;51.078;12.108;2023-11-21T11:53:43;4.32;;;2.50;;
37241;SDS011;23135;51.078;12.108;2023-11-21T11:56:30;2.25;;;2.00;;
37241;SDS011;23135;51.078;12.108;2023-11-21T11:58:59;2.60;;;2.20;;
37241;SDS011;23135;51.078;12.108;2023-11-21T12:01:30;4.38;;;3.13;;
37241;SDS011;23135;51.078;12.108;2023-11-21T12:07:08;5.95;;;3.75;;
37241;SDS011;23135;51.078;12.108;2023-11-21T12:09:33;3.35;;;2.45;;
37241;SDS011;23135;51.078;12.108;2023-11-21T12:11:59;4.10;;;2.60;;
37241;SDS011;23135;51.078;12.108;2023-11-21T12:14:26;5.05;;;3.08;;
37241;SDS011;23135;51.078;12.108;2023-11-21T12:16:51;5.32;;;3.60;;
37241;SDS011;23135;51.078;12.108;2023-11-21T12:19:17;7.85;;;4.47;;
37241;SDS011;23135;51.078;12.108;2023-11-21T12:21:43;11.77;;;6.05;;
37241;SDS011;23135;51.078;12.108;2023-11-21T12:24:09;11.70;;;7.72;;
37241;SDS011;23135;51.078;12.108;2023-11-21T12:26:38;11.48;;;6.85;;
37241;SDS011;23135;51.078;12.108;2023-11-21T12:29:04;14.43;;;8.15;;
37241;SDS011;23135;51.078;12.108;2023-11-21T12:31:32;14.63;;;8.13;;
37241;SDS011;23135;51.078;12.108;2023-11-21T12:33:59;17.50;;;9.93;;
37241;SDS011;23135;51.078;12.108;2023-11-21T12:36:25;13.75;;;8.77;;
37241;SDS011;23135;51.078;12.108;2023-11-21T12:38:51;19.02;;;8.93;;
37241;SDS011;23135;51.078;12.108;2023-11-21T12:41:16;14.85;;;8.13;;
37241;SDS011;23135;51.078;12.108;2023-11-21T12:43:42;12.18;;;7.28;;
37241;SDS011;23135;51.078;12.108;2023-11-21T12:46:09;12.02;;;7.45;;
37241;SDS011;23135;51.078;12.108;2023-11-21T12:48:39;10.98;;;6.60;;
37241;SDS011;23135;51.078;12.108;2023-11-21T12:51:08;15.93;;;8.20;;
37241;SDS011;23135;51.078;12.108;2023-11-21T12:53:35;18.23;;;8.35;;
37241;SDS011;23135;51.078;12.108;2023-11-21T12:56:06;13.75;;;7.40;;
37241;SDS011;23135;51.078;12.108;2023-11-21T12:58:34;11.95;;;6.97;;
37241;SDS011;23135;51.078;12.108;2023-11-21T13:01:01;11.68;;;7.15;;
37241;SDS011;23135;51.078;12.108;2023-11-21T13:03:29;13.10;;;6.47;;
37241;SDS011;23135;51.078;12.108;2023-11-21T13:05:55;11.75;;;7.57;;
37241;SDS011;23135;51.078;12.108;2023-11-21T13:08:22;17.75;;;8.88;;
37241;SDS011;23135;51.078;12.108;2023-11-21T13:10:49;13.13;;;7.85;;
37241;SDS011;23135;51.078;12.108;2023-11-21T13:13:20;23.60;;;13.02;;
37241;SDS011;23135;51.078;12.108;2023-11-21T13:15:59;10.52;;;6.38;;
37241;SDS011;23135;51.078;12.108;2023-11-21T13:18:26;12.93;;;6.68;;
37241;SDS011;23135;51.078;12.108;2023-11-21T13:20:53;12.48;;;6.20;;
37241;SDS011;23135;51.078;12.108;2023-11-21T13:23:24;13.68;;;7.72;;
37241;SDS011;23135;51.078;12.108;2023-11-21T13:25:50;17.48;;;8.98;;
37241;SDS011;23135;51.078;12.108;2023-11-21T13:28:17;19.45;;;10.93;;
37241;SDS011;23135;51.078;12.108;2023-11-21T13:30:49;20.52;;;11.85;;
37241;SDS011;23135;51.078;12.108;2023-11-21T13:33:17;22.35;;;11.48;;
37241;SDS011;23135;51.078;12.108;2023-11-21T13:35:52;19.38;;;10.70;;
37241;SDS011;23135;51.078;12.108;2023-11-21T13:38:18;12.82;;;7.40;;
37241;SDS011;23135;51.078;12.108;2023-11-21T13:40:51;13.88;;;6.90;;
37241;SDS011;23135;51.078;12.108;2023-11-21T13:43:22;7.60;;;4.22;;
37241;SDS011;23135;51.078;12.108;2023-11-21T13:45:50;6.45;;;3.90;;
37241;SDS011;23135;51.078;12.108;2023-11-21T13:48:26;6.60;;;4.18;;
37241;SDS011;23135;51.078;12.108;2023-11-21T13:51:02;10.05;;;3.38;;
37241;SDS011;23135;51.078;12.108;2023-11-21T13:53:35;7.20;;;3.40;;
37241;SDS011;23135;51.078;12.108;2023-11-21T13:56:02;12.50;;;5.15;;
37241;SDS011;23135;51.078;12.108;2023-11-21T13:58:28;10.52;;;5.47;;
37241;SDS011;23135;51.078;12.108;2023-11-21T14:01:10;14.93;;;7.35;;
37241;SDS011;23135;51.078;12.108;2023-11-21T14:03:55;14.25;;;7.00;;
37241;SDS011;23135;51.078;12.108;2023-11-21T14:06:47;18.05;;;9.00;;
37241;SDS011;23135;51.078;12.108;2023-11-21T14:09:16;14.80;;;8.02;;
37241;SDS011;23135;51.078;12.108;2023-11-21T14:11:50;13.23;;;7.05;;
37241;SDS011;23135;51.078;12.108;2023-11-21T14:14:17;16.02;;;7.45;;
37241;SDS011;23135;51.078;12.108;2023-11-21T14:16:43;12.85;;;7.53;;
37241;SDS011;23135;51.078;12.108;2023-11-21T14:19:09;14.43;;;5.97;;
37241;SDS011;23135;51.078;12.108;2023-11-21T14:21:41;17.63;;;8.40;;
37241;SDS011;23135;51.078;12.108;2023-11-21T14:24:10;13.60;;;6.60;;
37241;SDS011;23135;51.078;12.108;2023-11-21T14:26:41;13.60;;;6.93;;
37241;SDS011;23135;51.078;12.108;2023-11-21T14:29:11;11.65;;;6.63;;
37241;SDS011;23135;51.078;12.108;2023-11-21T14:31:39;30.63;;;7.10;;
37241;SDS011;23135;51.078;12.108;2023-11-21T14:34:06;14.07;;;6.13;;
37241;SDS011;23135;51.078;12.108;2023-11-21T14:36:32;12.20;;;6.35;;
37241;SDS011;23135;51.078;12.108;2023-11-21T14:38:58;17.05;;;7.47;;
37241;SDS011;23135;51.078;12.108;2023-11-21T14:41:23;16.83;;;7.47;;
37241;SDS011;23135;51.078;12.108;2023-11-21T14:43:50;16.83;;;9.57;;